createdAt,value
2022-12-11T00:00:00.223Z,-1.2
2022-12-11T00:01:07.255Z,-1.2
2022-12-11T00:02:00.386Z,-1.1
2022-12-11T00:03:00.552Z,-1.1
2022-12-11T00:04:00.245Z,-1.2
2022-12-11T00:05:00.210Z,-1.2
2022-12-11T00:06:04.499Z,-1.1
2022-12-11T00:07:00.319Z,-1.2
2022-12-11T00:08:00.315Z,-1.2
2022-12-11T00:09:00.640Z,-1.2
2022-12-11T00:10:00.601Z,-1.1
2022-12-11T00:11:00.321Z,-1.1
2022-12-11T00:12:00.404Z,-1.1
2022-12-11T00:13:00.355Z,-1.1
2022-12-11T00:14:00.241Z,-1.2
2022-12-11T00:15:00.257Z,-1.2
2022-12-11T00:16:00.437Z,-1.1
2022-12-11T00:17:00.367Z,-1.1
2022-12-11T00:18:00.227Z,-1.1
2022-12-11T00:19:00.253Z,-1.1
2022-12-11T00:20:00.235Z,-1.1
2022-12-11T00:21:01.119Z,-1.1
2022-12-11T00:22:00.242Z,-1.0
2022-12-11T00:23:00.224Z,-1.1
2022-12-11T00:24:00.239Z,-1.2
2022-12-11T00:25:00.367Z,-1.2
2022-12-11T00:26:00.257Z,-1.2
2022-12-11T00:27:00.309Z,-1.2
2022-12-11T00:28:00.250Z,-1.2
2022-12-11T00:29:00.302Z,-1.1
2022-12-11T00:30:00.331Z,-1.2
2022-12-11T00:31:05.189Z,-1.1
2022-12-11T00:32:00.402Z,-1.1
2022-12-11T00:33:00.394Z,-1.1
2022-12-11T00:34:01.007Z,-1.2
2022-12-11T00:35:00.231Z,-1.3
2022-12-11T00:36:00.368Z,-1.2
2022-12-11T00:37:00.444Z,-1.1
2022-12-11T00:38:00.215Z,-1.2
2022-12-11T00:39:01.145Z,-1.2
2022-12-11T00:40:00.286Z,-1.3
2022-12-11T00:41:00.329Z,-1.2
2022-12-11T00:42:00.208Z,-1.2
2022-12-11T00:43:00.233Z,-1.2
2022-12-11T00:44:00.224Z,-1.2
2022-12-11T00:45:00.241Z,-1.3
2022-12-11T00:46:01.169Z,-1.3
2022-12-11T00:47:00.488Z,-1.2
2022-12-11T00:48:00.209Z,-1.2
2022-12-11T00:49:00.275Z,-1.2
2022-12-11T00:50:00.234Z,-1.3
2022-12-11T00:51:00.269Z,-1.3
2022-12-11T00:52:00.226Z,-1.4
2022-12-11T00:53:00.395Z,-1.4
2022-12-11T00:54:00.225Z,-1.3
2022-12-11T00:55:00.241Z,-1.2
2022-12-11T00:56:00.238Z,-1.3
2022-12-11T00:57:00.246Z,-1.3
2022-12-11T00:58:00.261Z,-1.3
2022-12-11T00:59:00.221Z,-1.3
2022-12-11T01:00:00.214Z,-1.3
2022-12-11T01:01:10.000Z,-1.2
2022-12-11T01:02:00.234Z,-1.2
2022-12-11T01:03:00.746Z,-1.2
2022-12-11T01:04:00.311Z,-1.1
2022-12-11T01:05:00.240Z,-1.1
2022-12-11T01:06:00.615Z,-1.1
2022-12-11T01:07:00.313Z,-1.1
2022-12-11T01:08:00.429Z,-1.1
2022-12-11T01:09:00.270Z,-1.2
2022-12-11T01:10:00.256Z,-1.1
2022-12-11T01:11:03.551Z,-1.1
2022-12-11T01:12:00.242Z,-1.1
2022-12-11T01:13:04.252Z,-1.1
2022-12-11T01:14:00.257Z,-1.2
2022-12-11T01:15:00.349Z,-1.2
2022-12-11T01:16:05.904Z,-1.2
2022-12-11T01:17:00.344Z,-1.2
2022-12-11T01:18:00.215Z,-1.2
2022-12-11T01:19:00.253Z,-1.2
2022-12-11T01:20:00.229Z,-1.2
2022-12-11T01:21:04.066Z,-1.2
2022-12-11T01:22:00.247Z,-1.3
2022-12-11T01:23:00.245Z,-1.2
2022-12-11T01:24:00.218Z,-1.2
2022-12-11T01:25:00.245Z,-1.2
2022-12-11T01:26:06.382Z,-1.2
2022-12-11T01:27:00.241Z,-1.2
2022-12-11T01:28:00.243Z,-1.2
2022-12-11T01:29:00.214Z,-1.2
2022-12-11T01:30:00.213Z,-1.2
2022-12-11T01:31:00.573Z,-1.2
2022-12-11T01:32:00.228Z,-1.3
2022-12-11T01:33:00.217Z,-1.2
2022-12-11T01:34:00.193Z,-1.2
2022-12-11T01:35:03.185Z,-1.2
2022-12-11T01:36:00.199Z,-1.2
2022-12-11T01:37:00.258Z,-1.2
2022-12-11T01:38:00.244Z,-1.2
2022-12-11T01:39:00.233Z,-1.2
2022-12-11T01:40:00.925Z,-1.2
2022-12-11T01:41:00.258Z,-1.2
2022-12-11T01:42:00.573Z,-1.2
2022-12-11T01:43:00.228Z,-1.2
2022-12-11T01:44:04.702Z,-1.2
2022-12-11T01:45:11.413Z,-1.2
2022-12-11T01:46:00.537Z,-1.2
2022-12-11T01:47:00.585Z,-1.2
2022-12-11T01:48:07.547Z,-1.2
2022-12-11T01:49:02.515Z,-1.2
2022-12-11T01:50:00.206Z,-1.3
2022-12-11T01:51:03.746Z,-1.3
2022-12-11T01:52:07.263Z,-1.3
2022-12-11T01:53:01.465Z,-1.4
2022-12-11T01:54:06.728Z,-1.4
2022-12-11T01:55:00.329Z,-1.3
2022-12-11T01:56:01.933Z,-1.4
2022-12-11T01:57:05.470Z,-1.4
2022-12-11T01:58:01.410Z,-1.5
2022-12-11T01:59:03.705Z,-1.5
2022-12-11T02:00:00.225Z,-1.5
2022-12-11T02:01:01.552Z,-1.5
2022-12-11T02:02:06.808Z,-1.5
2022-12-11T02:03:00.694Z,-1.5
2022-12-11T02:04:00.748Z,-1.5
2022-12-11T02:05:03.012Z,-1.5
2022-12-11T02:06:01.279Z,-1.6
2022-12-11T02:07:00.181Z,-1.5
2022-12-11T02:08:02.512Z,-1.5
2022-12-11T02:09:00.913Z,-1.4
2022-12-11T02:10:00.279Z,-1.4
2022-12-11T02:11:09.406Z,-1.5
2022-12-11T02:12:10.070Z,-1.5
2022-12-11T02:13:06.572Z,-1.4
2022-12-11T02:14:11.933Z,-1.5
2022-12-11T02:15:14.348Z,-1.5
2022-12-11T02:16:13.051Z,-1.5
2022-12-11T02:17:09.396Z,-1.5
2022-12-11T02:18:06.612Z,-1.5
2022-12-11T02:19:14.125Z,-1.4
2022-12-11T02:20:15.313Z,-1.4
2022-12-11T02:21:04.458Z,-1.4
2022-12-11T02:22:06.234Z,-1.4
2022-12-11T02:23:11.137Z,-1.4
2022-12-11T02:24:20.059Z,-1.4
2022-12-11T02:25:14.549Z,-1.4
2022-12-11T02:26:20.081Z,-1.4
2022-12-11T02:27:10.146Z,-1.4
2022-12-11T02:28:13.366Z,-1.4
2022-12-11T02:29:02.914Z,-1.4
2022-12-11T02:30:05.640Z,-1.4
2022-12-11T02:31:04.708Z,-1.5
2022-12-11T02:32:04.920Z,-1.5
2022-12-11T02:33:00.500Z,-1.4
2022-12-11T02:34:03.962Z,-1.4
2022-12-11T02:35:10.505Z,-1.3
2022-12-11T02:36:03.669Z,-1.3
2022-12-11T02:37:06.730Z,-1.3
2022-12-11T02:38:04.977Z,-1.3
2022-12-11T02:39:03.031Z,-1.4
2022-12-11T02:40:04.456Z,-1.4
2022-12-11T02:41:03.189Z,-1.5
2022-12-11T02:42:01.259Z,-1.4
2022-12-11T02:43:03.464Z,-1.4
2022-12-11T02:44:02.102Z,-1.4
2022-12-11T02:45:01.940Z,-1.4
2022-12-11T02:46:05.100Z,-1.4
2022-12-11T02:47:03.276Z,-1.5
2022-12-11T02:48:02.818Z,-1.5
2022-12-11T02:49:04.684Z,-1.5
2022-12-11T02:50:02.149Z,-1.4
2022-12-11T02:51:02.902Z,-1.4
2022-12-11T02:52:02.939Z,-1.4
2022-12-11T02:53:03.198Z,-1.5
2022-12-11T02:54:01.772Z,-1.4
2022-12-11T02:55:02.750Z,-1.4
2022-12-11T02:56:07.518Z,-1.5
2022-12-11T02:57:07.130Z,-1.5
2022-12-11T02:58:11.771Z,-1.5
2022-12-11T02:59:07.482Z,-1.5
2022-12-11T03:00:00.693Z,-1.5
2022-12-11T03:01:00.472Z,-1.5
2022-12-11T03:02:01.026Z,-1.4
2022-12-11T03:03:01.121Z,-1.4
2022-12-11T03:04:00.419Z,-1.4
2022-12-11T03:05:00.288Z,-1.4
2022-12-11T03:06:00.209Z,-1.5
2022-12-11T03:07:05.378Z,-1.4
2022-12-11T03:08:00.987Z,-1.4
2022-12-11T03:09:00.224Z,-1.4
2022-12-11T03:10:00.308Z,-1.5
2022-12-11T03:11:00.227Z,-1.5
2022-12-11T03:12:00.195Z,-1.5
2022-12-11T03:13:01.706Z,-1.5
2022-12-11T03:14:01.746Z,-1.6
2022-12-11T03:15:04.048Z,-1.7
2022-12-11T03:16:10.773Z,-1.7
2022-12-11T03:17:12.984Z,-1.7
2022-12-11T03:18:08.059Z,-1.6
2022-12-11T03:19:08.352Z,-1.5
2022-12-11T03:20:10.133Z,-1.5
2022-12-11T03:21:08.882Z,-1.5
2022-12-11T03:22:09.276Z,-1.5
2022-12-11T03:23:11.167Z,-1.5
2022-12-11T03:24:09.013Z,-1.5
2022-12-11T03:25:06.264Z,-1.6
2022-12-11T03:26:02.275Z,-1.5
2022-12-11T03:27:11.237Z,-1.5
2022-12-11T03:28:11.605Z,-1.6
2022-12-11T03:29:07.022Z,-1.6
2022-12-11T03:30:06.745Z,-1.6
2022-12-11T03:31:06.003Z,-1.6
2022-12-11T03:32:08.127Z,-1.6
2022-12-11T03:33:04.319Z,-1.5
2022-12-11T03:34:06.290Z,-1.5
2022-12-11T03:35:15.869Z,-1.5
2022-12-11T03:36:04.899Z,-1.5
2022-12-11T03:37:03.013Z,-1.5
2022-12-11T03:38:05.185Z,-1.5
2022-12-11T03:39:08.494Z,-1.6
2022-12-11T03:40:06.670Z,-1.6
2022-12-11T03:41:03.139Z,-1.5
2022-12-11T03:42:04.742Z,-1.5
2022-12-11T03:43:02.101Z,-1.5
2022-12-11T03:44:00.798Z,-1.5
2022-12-11T03:45:02.380Z,-1.5
2022-12-11T03:46:00.474Z,-1.5
2022-12-11T03:47:05.374Z,-1.5
2022-12-11T03:48:01.722Z,-1.5
2022-12-11T03:49:06.742Z,-1.5
2022-12-11T03:50:03.012Z,-1.5
2022-12-11T03:51:03.953Z,-1.6
2022-12-11T03:52:03.402Z,-1.6
2022-12-11T03:53:02.301Z,-1.6
2022-12-11T03:54:01.327Z,-1.6
2022-12-11T03:55:03.513Z,-1.6
2022-12-11T03:56:02.795Z,-1.6
2022-12-11T03:57:02.968Z,-1.6
2022-12-11T03:58:00.258Z,-1.6
2022-12-11T03:59:00.440Z,-1.7
2022-12-11T04:00:00.239Z,-1.6
2022-12-11T04:01:00.412Z,-1.6
2022-12-11T04:02:00.311Z,-1.7
2022-12-11T04:03:00.222Z,-1.8
2022-12-11T04:04:00.330Z,-1.8
2022-12-11T04:05:00.300Z,-1.7
2022-12-11T04:06:00.269Z,-1.7
2022-12-11T04:07:00.244Z,-1.7
2022-12-11T04:08:00.397Z,-1.7
2022-12-11T04:09:00.224Z,-1.6
2022-12-11T04:10:00.469Z,-1.7
2022-12-11T04:11:03.010Z,-1.7
2022-12-11T04:12:00.298Z,-1.7
2022-12-11T04:13:00.244Z,-1.7
2022-12-11T04:14:05.584Z,-1.7
2022-12-11T04:15:00.247Z,-1.7
2022-12-11T04:16:00.303Z,-1.7
2022-12-11T04:17:00.245Z,-1.7
2022-12-11T04:18:00.251Z,-1.7
2022-12-11T04:19:00.255Z,-1.7
2022-12-11T04:20:00.246Z,-1.7
2022-12-11T04:21:00.209Z,-1.7
2022-12-11T04:22:00.281Z,-1.7
2022-12-11T04:23:02.717Z,-1.8
2022-12-11T04:24:00.273Z,-1.8
2022-12-11T04:25:00.850Z,-1.8
2022-12-11T04:26:05.662Z,-1.8
2022-12-11T04:27:00.319Z,-1.9
2022-12-11T04:28:00.265Z,-2.0
2022-12-11T04:29:00.262Z,-2.0
2022-12-11T04:30:00.313Z,-2.0
2022-12-11T04:31:00.464Z,-2.0
2022-12-11T04:32:00.297Z,-2.0
2022-12-11T04:33:00.885Z,-1.9
2022-12-11T04:34:00.305Z,-1.9
2022-12-11T04:35:00.441Z,-2.0
2022-12-11T04:36:00.452Z,-2.0
2022-12-11T04:37:00.267Z,-2.0
2022-12-11T04:38:00.253Z,-2.0
2022-12-11T04:39:00.439Z,-2.0
2022-12-11T04:40:00.252Z,-2.0
2022-12-11T04:41:06.826Z,-2.1
2022-12-11T04:42:00.239Z,-2.0
2022-12-11T04:43:00.305Z,-2.0
2022-12-11T04:44:00.530Z,-1.9
2022-12-11T04:45:00.276Z,-1.9
2022-12-11T04:46:07.506Z,-1.9
2022-12-11T04:47:00.241Z,-1.9
2022-12-11T04:48:00.281Z,-1.8
2022-12-11T04:49:00.333Z,-1.9
2022-12-11T04:50:00.644Z,-1.9
2022-12-11T04:51:00.364Z,-2.0
2022-12-11T04:52:00.427Z,-1.9
2022-12-11T04:53:00.219Z,-1.9
2022-12-11T04:54:00.297Z,-1.9
2022-12-11T04:55:00.245Z,-1.9
2022-12-11T04:56:00.574Z,-1.9
2022-12-11T04:57:00.232Z,-1.8
2022-12-11T04:58:00.244Z,-1.8
2022-12-11T04:59:00.236Z,-1.8
2022-12-11T05:00:00.287Z,-1.8
2022-12-11T05:01:05.606Z,-1.7
2022-12-11T05:02:00.300Z,-1.6
2022-12-11T05:03:00.310Z,-1.6
2022-12-11T05:04:00.243Z,-1.6
2022-12-11T05:05:00.304Z,-1.7
2022-12-11T05:06:00.393Z,-1.7
2022-12-11T05:07:00.938Z,-1.7
2022-12-11T05:08:00.321Z,-1.6
2022-12-11T05:09:00.204Z,-1.6
2022-12-11T05:10:00.597Z,-1.6
2022-12-11T05:11:04.467Z,-1.5
2022-12-11T05:12:00.284Z,-1.6
2022-12-11T05:13:00.254Z,-1.7
2022-12-11T05:14:00.219Z,-1.7
2022-12-11T05:15:00.205Z,-1.8
2022-12-11T05:16:03.415Z,-1.8
2022-12-11T05:17:00.205Z,-1.8
2022-12-11T05:18:00.234Z,-1.8
2022-12-11T05:19:00.250Z,-1.7
2022-12-11T05:20:00.287Z,-1.8
2022-12-11T05:21:04.289Z,-1.8
2022-12-11T05:22:00.247Z,-1.8
2022-12-11T05:23:00.275Z,-1.7
2022-12-11T05:24:00.284Z,-1.7
2022-12-11T05:25:00.203Z,-1.8
2022-12-11T05:26:04.485Z,-1.8
2022-12-11T05:27:00.229Z,-2.0
2022-12-11T05:28:00.230Z,-2.0
2022-12-11T05:29:00.194Z,-2.0
2022-12-11T05:30:00.216Z,-2.0
2022-12-11T05:31:04.594Z,-2.0
2022-12-11T05:32:00.301Z,-2.0
2022-12-11T05:33:00.240Z,-1.9
2022-12-11T05:34:00.256Z,-1.8
2022-12-11T05:35:00.197Z,-1.8
2022-12-11T05:36:00.420Z,-1.9
2022-12-11T05:37:00.452Z,-2.0
2022-12-11T05:38:00.188Z,-1.9
2022-12-11T05:39:00.749Z,-1.9
2022-12-11T05:40:00.356Z,-1.9
2022-12-11T05:41:03.269Z,-1.9
2022-12-11T05:42:00.172Z,-1.8
2022-12-11T05:43:00.200Z,-1.8
2022-12-11T05:44:00.305Z,-1.8
2022-12-11T05:45:00.173Z,-1.8
2022-12-11T05:46:07.438Z,-1.8
2022-12-11T05:47:00.239Z,-1.9
2022-12-11T05:48:00.302Z,-1.9
2022-12-11T05:49:01.279Z,-1.9
2022-12-11T05:50:00.179Z,-1.9
2022-12-11T05:51:01.425Z,-1.9
2022-12-11T05:52:00.217Z,-1.8
2022-12-11T05:53:00.187Z,-1.9
2022-12-11T05:54:01.077Z,-1.9
2022-12-11T05:55:00.200Z,-1.9
2022-12-11T05:56:02.339Z,-1.9
2022-12-11T05:57:00.178Z,-2.0
2022-12-11T05:58:00.243Z,-2.0
2022-12-11T05:59:01.462Z,-1.9
2022-12-11T06:00:00.226Z,-1.9
2022-12-11T06:01:00.448Z,-1.8
2022-12-11T06:02:00.274Z,-1.8
2022-12-11T06:03:00.296Z,-1.8
2022-12-11T06:04:01.234Z,-1.8
2022-12-11T06:05:00.593Z,-1.8
2022-12-11T06:06:01.033Z,-1.8
2022-12-11T06:07:00.224Z,-1.9
2022-12-11T06:08:00.285Z,-1.8
2022-12-11T06:09:00.889Z,-1.9
2022-12-11T06:10:00.243Z,-1.9
2022-12-11T06:11:01.749Z,-2.0
2022-12-11T06:12:00.269Z,-2.0
2022-12-11T06:13:00.256Z,-1.9
2022-12-11T06:14:02.039Z,-1.9
2022-12-11T06:15:00.212Z,-1.9
2022-12-11T06:16:01.409Z,-2.0
2022-12-11T06:17:00.209Z,-2.0
2022-12-11T06:18:00.237Z,-2.0
2022-12-11T06:19:00.274Z,-1.9
2022-12-11T06:20:00.224Z,-1.9
2022-12-11T06:21:00.210Z,-2.0
2022-12-11T06:22:00.248Z,-1.9
2022-12-11T06:23:01.022Z,-1.9
2022-12-11T06:24:02.347Z,-1.9
2022-12-11T06:25:00.227Z,-1.9
2022-12-11T06:26:02.269Z,-2.0
2022-12-11T06:27:00.224Z,-2.0
2022-12-11T06:28:00.289Z,-2.0
2022-12-11T06:29:00.215Z,-2.0
2022-12-11T06:30:00.541Z,-2.0
2022-12-11T06:31:00.421Z,-2.0
2022-12-11T06:32:00.306Z,-1.9
2022-12-11T06:33:00.232Z,-1.9
2022-12-11T06:34:00.263Z,-2.0
2022-12-11T06:35:00.220Z,-1.9
2022-12-11T06:36:01.828Z,-1.9
2022-12-11T06:37:00.232Z,-1.9
2022-12-11T06:38:00.213Z,-1.9
2022-12-11T06:39:00.209Z,-1.9
2022-12-11T06:40:00.392Z,-1.9
2022-12-11T06:41:01.939Z,-1.9
2022-12-11T06:42:00.203Z,-1.8
2022-12-11T06:43:00.251Z,-1.8
2022-12-11T06:44:00.237Z,-1.8
2022-12-11T06:45:00.642Z,-1.8
2022-12-11T06:46:12.524Z,-1.8
2022-12-11T06:47:00.206Z,-1.8
2022-12-11T06:48:00.201Z,-1.8
2022-12-11T06:49:00.241Z,-1.8
2022-12-11T06:50:00.253Z,-1.8
2022-12-11T06:51:03.998Z,-1.8
2022-12-11T06:52:00.220Z,-1.8
2022-12-11T06:53:00.228Z,-1.9
2022-12-11T06:54:00.304Z,-2.0
2022-12-11T06:55:00.226Z,-2.0
2022-12-11T06:56:05.130Z,-2.0
2022-12-11T06:57:00.223Z,-1.9
2022-12-11T06:58:00.347Z,-1.9
2022-12-11T06:59:05.706Z,-2.0
2022-12-11T07:00:00.220Z,-2.0
2022-12-11T07:01:00.623Z,-2.0
2022-12-11T07:02:00.289Z,-2.0
2022-12-11T07:03:00.255Z,-2.0
2022-12-11T07:04:00.241Z,-2.0
2022-12-11T07:05:00.312Z,-1.9
2022-12-11T07:06:01.284Z,-1.9
2022-12-11T07:07:00.201Z,-1.9
2022-12-11T07:08:00.331Z,-1.9
2022-12-11T07:09:02.475Z,-1.9
2022-12-11T07:10:07.317Z,-1.9
2022-12-11T07:11:02.660Z,-1.9
2022-12-11T07:12:00.292Z,-1.9
2022-12-11T07:13:00.200Z,-2.0
2022-12-11T07:14:00.318Z,-2.0
2022-12-11T07:15:00.200Z,-2.0
2022-12-11T07:16:01.468Z,-2.0
2022-12-11T07:17:00.388Z,-1.9
2022-12-11T07:18:00.327Z,-1.9
2022-12-11T07:19:00.183Z,-1.9
2022-12-11T07:20:00.355Z,-1.9
2022-12-11T07:21:00.206Z,-1.9
2022-12-11T07:22:00.218Z,-1.8
2022-12-11T07:23:00.182Z,-1.9
2022-12-11T07:24:00.239Z,-1.9
2022-12-11T07:25:00.269Z,-1.9
2022-12-11T07:26:10.476Z,-1.9
2022-12-11T07:27:00.177Z,-1.8
2022-12-11T07:28:00.177Z,-1.8
2022-12-11T07:29:00.328Z,-1.8
2022-12-11T07:30:00.203Z,-1.8
2022-12-11T07:31:10.646Z,-1.9
2022-12-11T07:32:00.259Z,-1.9
2022-12-11T07:33:00.205Z,-1.9
2022-12-11T07:34:04.048Z,-1.9
2022-12-11T07:35:00.202Z,-1.8
2022-12-11T07:36:05.564Z,-1.8
2022-12-11T07:37:00.466Z,-1.8
2022-12-11T07:38:00.454Z,-1.8
2022-12-11T07:39:00.324Z,-1.9
2022-12-11T07:40:00.164Z,-1.8
2022-12-11T07:41:01.705Z,-1.8
2022-12-11T07:42:00.149Z,-1.8
2022-12-11T07:43:00.166Z,-1.8
2022-12-11T07:44:00.523Z,-1.8
2022-12-11T07:45:00.160Z,-1.8
2022-12-11T07:46:02.264Z,-1.8
2022-12-11T07:47:00.247Z,-1.7
2022-12-11T07:48:00.152Z,-1.8
2022-12-11T07:49:00.803Z,-1.8
2022-12-11T07:50:00.152Z,-1.8
2022-12-11T07:51:08.802Z,-1.8
2022-12-11T07:52:00.144Z,-1.7
2022-12-11T07:53:00.136Z,-1.8
2022-12-11T07:54:03.878Z,-1.8
2022-12-11T07:55:00.236Z,-1.9
2022-12-11T07:56:00.296Z,-2.0
2022-12-11T07:57:00.118Z,-2.0
2022-12-11T07:58:00.148Z,-1.9
2022-12-11T07:59:01.494Z,-1.9
2022-12-11T08:00:00.174Z,-1.9
2022-12-11T08:01:00.224Z,-1.9
2022-12-11T08:02:02.169Z,-1.8
2022-12-11T08:03:00.108Z,-1.9
2022-12-11T08:04:00.190Z,-2.0
2022-12-11T08:05:00.140Z,-1.9
2022-12-11T08:06:00.157Z,-1.9
2022-12-11T08:07:00.122Z,-1.9
2022-12-11T08:08:00.205Z,-1.9
2022-12-11T08:09:03.321Z,-1.8
2022-12-11T08:10:00.187Z,-1.9
2022-12-11T08:11:01.755Z,-1.9
2022-12-11T08:12:00.135Z,-1.9
2022-12-11T08:13:00.176Z,-1.9
2022-12-11T08:14:00.299Z,-1.9
2022-12-11T08:15:00.186Z,-1.9
2022-12-11T08:16:04.741Z,-1.9
2022-12-11T08:17:00.318Z,-1.9
2022-12-11T08:18:00.264Z,-1.8
2022-12-11T08:19:00.203Z,-1.9
2022-12-11T08:20:00.206Z,-1.9
2022-12-11T08:21:04.067Z,-1.9
2022-12-11T08:22:00.251Z,-1.9
2022-12-11T08:23:00.234Z,-1.9
2022-12-11T08:24:00.201Z,-2.0
2022-12-11T08:25:00.241Z,-2.0
2022-12-11T08:26:04.908Z,-2.0
2022-12-11T08:27:00.222Z,-1.9
2022-12-11T08:28:00.263Z,-1.9
2022-12-11T08:29:00.828Z,-1.9
2022-12-11T08:30:00.308Z,-1.8
2022-12-11T08:31:04.221Z,-1.8
2022-12-11T08:32:00.260Z,-1.9
2022-12-11T08:33:00.462Z,-1.9
2022-12-11T08:34:00.313Z,-2.0
2022-12-11T08:35:00.397Z,-2.0
2022-12-11T08:36:03.511Z,-2.0
2022-12-11T08:37:00.488Z,-1.9
2022-12-11T08:38:00.299Z,-2.1
2022-12-11T08:39:00.397Z,-2.1
2022-12-11T08:40:00.356Z,-2.1
2022-12-11T08:41:11.254Z,-2.1
2022-12-11T08:42:00.285Z,-2.1
2022-12-11T08:43:00.306Z,-2.1
2022-12-11T08:44:00.493Z,-2.1
2022-12-11T08:45:00.429Z,-2.0
2022-12-11T08:46:00.410Z,-1.9
2022-12-11T08:47:00.346Z,-1.9
2022-12-11T08:48:00.559Z,-1.9
2022-12-11T08:49:00.344Z,-2.0
2022-12-11T08:50:00.509Z,-2.0
2022-12-11T08:51:01.933Z,-1.9
2022-12-11T08:52:02.735Z,-1.8
2022-12-11T08:53:00.369Z,-1.9
2022-12-11T08:54:00.512Z,-1.9
2022-12-11T08:55:00.475Z,-1.8
2022-12-11T08:56:01.293Z,-1.8
2022-12-11T08:57:00.227Z,-1.8
2022-12-11T08:58:00.235Z,-2.0
2022-12-11T08:59:00.553Z,-2.0
2022-12-11T09:00:00.249Z,-2.0
2022-12-11T09:01:05.976Z,-1.9
2022-12-11T09:02:00.436Z,-1.9
2022-12-11T09:03:00.370Z,-1.9
2022-12-11T09:04:00.254Z,-2.0
2022-12-11T09:05:00.367Z,-2.0
2022-12-11T09:06:03.138Z,-2.0
2022-12-11T09:07:00.240Z,-2.2
2022-12-11T09:08:00.267Z,-2.2
2022-12-11T09:09:01.181Z,-2.2
2022-12-11T09:10:00.558Z,-2.2
2022-12-11T09:11:02.779Z,-2.1
2022-12-11T09:12:00.435Z,-2.1
2022-12-11T09:13:00.252Z,-2.0
2022-12-11T09:14:06.796Z,-2.0
2022-12-11T09:15:00.279Z,-2.0
2022-12-11T09:16:03.362Z,-2.0
2022-12-11T09:17:00.238Z,-2.0
2022-12-11T09:18:00.382Z,-2.0
2022-12-11T09:19:00.227Z,-2.0
2022-12-11T09:20:00.653Z,-2.0
2022-12-11T09:21:02.555Z,-2.0
2022-12-11T09:22:00.607Z,-2.0
2022-12-11T09:23:00.508Z,-2.0
2022-12-11T09:24:00.500Z,-1.9
2022-12-11T09:25:00.304Z,-1.9
2022-12-11T09:26:03.150Z,-1.9
2022-12-11T09:27:00.282Z,-1.9
2022-12-11T09:28:00.231Z,-2.0
2022-12-11T09:29:03.581Z,-2.0
2022-12-11T09:30:00.335Z,-1.9
2022-12-11T09:31:00.404Z,-1.9
2022-12-11T09:32:00.289Z,-2.1
2022-12-11T09:33:00.319Z,-2.0
2022-12-11T09:34:03.038Z,-2.0
2022-12-11T09:35:00.300Z,-2.0
2022-12-11T09:36:01.970Z,-2.0
2022-12-11T09:37:00.888Z,-2.0
2022-12-11T09:38:00.235Z,-2.1
2022-12-11T09:39:02.526Z,-2.1
2022-12-11T09:40:07.061Z,-2.1
2022-12-11T09:41:00.295Z,-2.0
2022-12-11T09:42:09.806Z,-2.0
2022-12-11T09:43:08.121Z,-2.0
2022-12-11T09:44:10.907Z,-2.0
2022-12-11T09:45:02.789Z,-1.9
2022-12-11T09:46:03.909Z,-1.9
2022-12-11T09:47:00.700Z,-1.9
2022-12-11T09:48:01.352Z,-1.9
2022-12-11T09:49:02.756Z,-1.9
2022-12-11T09:50:10.236Z,-1.8
2022-12-11T09:51:05.444Z,-1.9
2022-12-11T09:52:10.311Z,-1.9
2022-12-11T09:53:12.315Z,-1.8
2022-12-11T09:54:03.384Z,-1.9
2022-12-11T09:55:08.971Z,-1.9
2022-12-11T09:56:14.602Z,-1.9
2022-12-11T09:57:20.157Z,-1.9
2022-12-11T09:58:17.539Z,-1.8
2022-12-11T09:59:16.675Z,-1.7
2022-12-11T10:00:13.844Z,-1.7
2022-12-11T10:01:09.170Z,-1.8
2022-12-11T10:02:20.202Z,-1.8
2022-12-11T10:03:20.159Z,-1.8
2022-12-11T10:04:11.169Z,-1.8
2022-12-11T10:05:10.433Z,-1.8
2022-12-11T10:06:13.063Z,-1.8
2022-12-11T10:07:12.784Z,-1.7
2022-12-11T10:08:07.346Z,-1.7
2022-12-11T10:09:10.166Z,-1.7
2022-12-11T10:10:06.593Z,-1.8
2022-12-11T10:11:11.173Z,-1.8
2022-12-11T10:12:11.307Z,-1.7
2022-12-11T10:13:12.411Z,-1.7
2022-12-11T10:14:20.127Z,-1.6
2022-12-11T10:15:10.620Z,-1.5
2022-12-11T10:19:00.409Z,-1.7
2022-12-11T10:20:16.768Z,-1.6
2022-12-11T10:21:01.350Z,-1.5
2022-12-11T10:22:01.194Z,-1.5
2022-12-11T10:23:02.150Z,-1.6
2022-12-11T10:24:03.611Z,-1.5
2022-12-11T10:25:12.316Z,-1.5
2022-12-11T10:26:14.939Z,-1.6
2022-12-11T10:27:15.956Z,-1.6
2022-12-11T10:28:10.910Z,-1.7
2022-12-11T10:29:01.392Z,-1.7
2022-12-11T10:30:12.052Z,-1.7
2022-12-11T10:31:18.814Z,-1.7
2022-12-11T10:32:01.468Z,-1.7
2022-12-11T10:33:10.711Z,-1.7
2022-12-11T10:34:02.604Z,-1.6
2022-12-11T10:35:03.577Z,-1.7
2022-12-11T10:36:00.387Z,-1.6
2022-12-11T10:37:01.205Z,-1.6
2022-12-11T10:38:10.355Z,-1.6
2022-12-11T10:39:00.668Z,-1.6
2022-12-11T10:40:00.241Z,-1.7
2022-12-11T10:41:03.973Z,-1.7
2022-12-11T10:42:14.780Z,-1.7
2022-12-11T10:43:00.437Z,-1.7
2022-12-11T10:44:00.335Z,-1.6
2022-12-11T10:45:02.487Z,-1.6
2022-12-11T10:46:00.472Z,-1.6
2022-12-11T10:47:01.221Z,-1.6
2022-12-11T10:48:02.510Z,-1.7
2022-12-11T10:49:00.699Z,-1.9
2022-12-11T10:50:01.780Z,-1.8
2022-12-11T10:51:04.393Z,-1.8
2022-12-11T10:52:01.145Z,-1.7
2022-12-11T10:53:00.574Z,-1.6
2022-12-11T10:54:07.451Z,-1.6
2022-12-11T10:55:05.414Z,-1.7
2022-12-11T10:56:01.222Z,-1.7
2022-12-11T10:57:02.270Z,-1.6
2022-12-11T10:58:03.033Z,-1.6
2022-12-11T10:59:00.559Z,-1.6
2022-12-11T11:00:01.599Z,-1.5
2022-12-11T11:01:12.940Z,-1.5
2022-12-11T11:02:01.519Z,-1.6
2022-12-11T11:03:01.192Z,-1.6
2022-12-11T11:04:05.368Z,-1.6
2022-12-11T11:05:14.401Z,-1.5
2022-12-11T11:06:02.474Z,-1.5
2022-12-11T11:07:11.225Z,-1.5
2022-12-11T11:08:13.581Z,-1.5
2022-12-11T11:09:00.994Z,-1.5
2022-12-11T11:10:10.355Z,-1.5
2022-12-11T11:11:00.447Z,-1.5
2022-12-11T11:12:07.435Z,-1.5
2022-12-11T11:13:01.378Z,-1.5
2022-12-11T11:14:05.867Z,-1.6
2022-12-11T11:20:11.504Z,-1.7
2022-12-11T11:21:00.848Z,-1.7
2022-12-11T11:22:08.261Z,-1.7
2022-12-11T11:23:03.193Z,-1.7
2022-12-11T11:24:00.261Z,-1.8
2022-12-11T11:25:01.064Z,-1.8
2022-12-11T11:26:05.249Z,-1.8
2022-12-11T11:27:13.906Z,-1.8
2022-12-11T11:28:03.989Z,-1.7
2022-12-11T11:29:00.258Z,-1.8
2022-12-11T11:30:04.128Z,-1.7
2022-12-11T11:31:03.565Z,-1.7
2022-12-11T11:32:12.520Z,-1.7
2022-12-11T11:33:11.207Z,-1.7
2022-12-11T11:34:05.566Z,-1.7
2022-12-11T11:35:10.462Z,-1.7
2022-12-11T11:36:03.456Z,-1.7
2022-12-11T11:37:00.233Z,-1.7
2022-12-11T11:38:18.717Z,-1.7
2022-12-11T11:39:13.470Z,-1.7
2022-12-11T11:40:12.562Z,-1.7
2022-12-11T11:41:15.291Z,-1.7
2022-12-11T11:42:16.172Z,-1.7
2022-12-11T11:43:15.362Z,-1.7
2022-12-11T11:44:05.363Z,-1.8
2022-12-11T11:45:09.719Z,-1.8
2022-12-11T11:46:13.565Z,-1.8
2022-12-11T11:47:13.660Z,-1.8
2022-12-11T11:48:12.399Z,-1.8
2022-12-11T11:49:20.145Z,-1.9
2022-12-11T11:50:06.954Z,-1.9
2022-12-11T11:51:11.775Z,-1.9
2022-12-11T11:52:10.170Z,-2.0
2022-12-11T11:53:04.916Z,-2.1
2022-12-11T11:54:07.564Z,-2.3
2022-12-11T11:55:11.328Z,-2.3
2022-12-11T11:56:17.651Z,-2.3
2022-12-11T11:57:14.416Z,-2.3
2022-12-11T11:58:07.916Z,-2.3
2022-12-11T11:59:11.156Z,-2.2
2022-12-11T12:00:05.850Z,-2.3
2022-12-11T12:01:00.240Z,-2.3
2022-12-11T12:02:00.237Z,-2.4
2022-12-11T12:03:07.500Z,-2.3
2022-12-11T12:04:03.040Z,-2.3
2022-12-11T12:05:01.622Z,-2.3
2022-12-11T12:06:13.426Z,-2.3
2022-12-11T12:07:12.564Z,-2.3
2022-12-11T12:08:08.529Z,-2.3
2022-12-11T12:09:20.172Z,-2.3
2022-12-11T12:10:11.130Z,-2.2
2022-12-11T12:11:01.284Z,-2.4
2022-12-11T12:12:26.397Z,-2.4
2022-12-11T12:13:10.855Z,-2.3
2022-12-11T12:14:43.743Z,-2.3
2022-12-11T12:15:14.549Z,-2.2
2022-12-11T12:16:01.398Z,-2.2
2022-12-11T12:17:07.761Z,-2.2
2022-12-11T12:18:09.817Z,-2.3
2022-12-11T12:19:08.342Z,-2.4
2022-12-11T12:20:11.171Z,-2.5
2022-12-11T12:21:12.541Z,-2.5
2022-12-11T12:22:18.565Z,-2.5
2022-12-11T12:23:10.470Z,-2.5
2022-12-11T12:24:06.994Z,-2.3
2022-12-11T12:25:20.117Z,-2.2
2022-12-11T12:26:10.104Z,-2.2
2022-12-11T12:27:29.447Z,-2.2
2022-12-11T12:28:20.135Z,-2.2
2022-12-11T12:29:19.657Z,-2.3
2022-12-11T12:30:08.234Z,-2.3
2022-12-11T12:31:04.571Z,-2.3
2022-12-11T12:32:08.206Z,-2.2
2022-12-11T12:33:13.977Z,-2.2
2022-12-11T12:34:13.470Z,-2.1
2022-12-11T12:35:20.129Z,-2.2
2022-12-11T12:36:10.067Z,-2.3
2022-12-11T12:37:06.976Z,-2.4
2022-12-11T12:38:05.978Z,-2.4
2022-12-11T12:39:06.928Z,-2.4
2022-12-11T12:40:20.157Z,-2.3
2022-12-11T12:41:08.664Z,-2.3
2022-12-11T12:42:10.178Z,-2.3
2022-12-11T12:43:14.917Z,-2.3
2022-12-11T12:44:13.430Z,-2.3
2022-12-11T12:45:10.113Z,-2.3
2022-12-11T12:46:13.897Z,-2.3
2022-12-11T12:47:08.032Z,-2.3
2022-12-11T12:48:00.848Z,-2.2
2022-12-11T12:49:01.380Z,-2.1
2022-12-11T12:50:02.630Z,-2.2
2022-12-11T12:51:02.406Z,-2.2
2022-12-11T12:52:01.630Z,-2.2
2022-12-11T12:53:00.552Z,-2.2
2022-12-11T12:54:04.689Z,-2.2
2022-12-11T12:55:15.723Z,-2.2
2022-12-11T12:56:02.022Z,-2.2
2022-12-11T12:57:02.572Z,-2.1
2022-12-11T12:58:04.668Z,-2.1
2022-12-11T12:59:00.201Z,-2.1
2022-12-11T13:00:00.371Z,-2.2
2022-12-11T13:01:11.241Z,-2.2
2022-12-11T13:02:02.821Z,-2.2
2022-12-11T13:03:12.284Z,-2.2
2022-12-11T13:04:03.273Z,-2.2
2022-12-11T13:05:14.824Z,-2.2
2022-12-11T13:06:08.316Z,-2.2
2022-12-11T13:07:11.853Z,-2.1
2022-12-11T13:08:02.832Z,-2.2
2022-12-11T13:09:13.916Z,-2.2
2022-12-11T13:10:20.101Z,-2.2
2022-12-11T13:11:05.101Z,-2.1
2022-12-11T13:12:12.940Z,-2.1
2022-12-11T13:13:02.182Z,-2.0
2022-12-11T13:14:02.287Z,-2.0
2022-12-11T13:15:00.310Z,-2.0
2022-12-11T13:16:17.701Z,-2.0
2022-12-11T13:17:16.122Z,-2.0
2022-12-11T13:18:03.814Z,-2.1
2022-12-11T13:19:00.721Z,-2.1
2022-12-11T13:20:12.292Z,-2.1
2022-12-11T13:21:02.055Z,-2.1
2022-12-11T13:22:11.168Z,-2.1
2022-12-11T13:23:16.793Z,-2.1
2022-12-11T13:24:15.760Z,-2.1
2022-12-11T13:25:11.544Z,-2.1
2022-12-11T13:26:02.697Z,-2.1